Tennant Creek Airport
YTNK : now visible

Airfield :











YOU CAN JOIN US ON...

 
LOGIN :

Register | Disclaimer

   EN    FR    IT 

 









Legend :    VFR   Marginal VFR   IFR   Intensive IFR   Very Intensive IFR
Visi :
Ceiling :
>= 8 km
>= 3000ft
5 to 8 km
1000 to 3000 ft
1500m to 5 km
500 to 1000 ft
800 to 1500m
200 to 500 ft
< 800m
< 200 ft
Symbols :   Thunderstorms  Fog  Heavy snow  Heavy precipitations  Wind > 20 kt






- Airport Elevation : 1236 ft
- IATA code : TCA


YTNK - Tennant Creek

CURRENT METAR :
  • 090200Z AUTO 34010KT 290V350 9999 // NCD 41/02 Q1011

EXPIRED METARs :
  • 090100Z AUTO 32011KT 9999 // NCD 39/03 Q1012
  • 090000Z AUTO 32017KT 9999 // NCD 38/04 Q1012

TAF TAF YTNK
Valid from the 09 at 02:00 until the 09 at 14:00 UTC


090058Z 0902/0914 34008KT CAVOK
FM090400 08008KT CAVOK



MET'MAP, your aeronautical weather chart ! - Copyright ORBIFLY December 2007 - Disclaimer

ORBIFLY MET'MAP TEAM :

Programming & Development : Alexandra Zaïnal
Concept & original design : Baudouin d'Aumeries
Assistance for programming : Marc-Olivier Méhu
Technical & hardware support : Manuel Goepfert

Contact : metmap@orbifly.com




SOURCES & CREDITS :

   NOAA       Earth
Advisory